sensor_id;sensor_type;location;lat;lon;timestamp;P1;durP1;ratioP1;P2;durP2;ratioP2
77105;SDS011;66057;54.718;18.426;2024-01-30T00:02:15;31.27;;;14.77;;
77105;SDS011;66057;54.718;18.426;2024-01-30T00:07:07;23.33;;;10.73;;
77105;SDS011;66057;54.718;18.426;2024-01-30T00:09:33;29.85;;;13.07;;
77105;SDS011;66057;54.718;18.426;2024-01-30T00:11:59;28.52;;;12.85;;
77105;SDS011;66057;54.718;18.426;2024-01-30T00:14:25;30.33;;;12.60;;
77105;SDS011;66057;54.718;18.426;2024-01-30T00:16:51;22.88;;;8.77;;
77105;SDS011;66057;54.718;18.426;2024-01-30T00:19:17;23.33;;;11.80;;
77105;SDS011;66057;54.718;18.426;2024-01-30T00:21:43;35.88;;;15.27;;
77105;SDS011;66057;54.718;18.426;2024-01-30T00:24:09;28.38;;;12.25;;
77105;SDS011;66057;54.718;18.426;2024-01-30T00:26:34;26.10;;;10.38;;
77105;SDS011;66057;54.718;18.426;2024-01-30T00:29:00;36.03;;;14.98;;
77105;SDS011;66057;54.718;18.426;2024-01-30T00:31:26;29.73;;;14.38;;
77105;SDS011;66057;54.718;18.426;2024-01-30T00:33:52;21.88;;;10.45;;
77105;SDS011;66057;54.718;18.426;2024-01-30T00:36:18;23.83;;;8.80;;
77105;SDS011;66057;54.718;18.426;2024-01-30T00:38:44;28.20;;;12.95;;
77105;SDS011;66057;54.718;18.426;2024-01-30T00:41:13;28.95;;;11.77;;
77105;SDS011;66057;54.718;18.426;2024-01-30T00:43:39;19.42;;;8.00;;
77105;SDS011;66057;54.718;18.426;2024-01-30T00:46:05;18.95;;;7.10;;
77105;SDS011;66057;54.718;18.426;2024-01-30T00:48:31;21.05;;;10.35;;
77105;SDS011;66057;54.718;18.426;2024-01-30T00:50:57;26.20;;;12.98;;
77105;SDS011;66057;54.718;18.426;2024-01-30T00:53:23;25.92;;;12.70;;
77105;SDS011;66057;54.718;18.426;2024-01-30T00:55:48;34.75;;;14.55;;
77105;SDS011;66057;54.718;18.426;2024-01-30T00:58:14;23.33;;;10.98;;
77105;SDS011;66057;54.718;18.426;2024-01-30T01:00:40;24.92;;;11.38;;
77105;SDS011;66057;54.718;18.426;2024-01-30T01:03:06;27.13;;;12.55;;
77105;SDS011;66057;54.718;18.426;2024-01-30T01:05:32;25.42;;;9.77;;
77105;SDS011;66057;54.718;18.426;2024-01-30T01:07:58;20.02;;;9.10;;
77105;SDS011;66057;54.718;18.426;2024-01-30T01:10:23;19.65;;;8.75;;
77105;SDS011;66057;54.718;18.426;2024-01-30T01:12:49;22.30;;;9.75;;
77105;SDS011;66057;54.718;18.426;2024-01-30T01:15:15;22.35;;;10.38;;
77105;SDS011;66057;54.718;18.426;2024-01-30T01:17:41;27.85;;;11.60;;
77105;SDS011;66057;54.718;18.426;2024-01-30T01:20:07;27.45;;;11.43;;
77105;SDS011;66057;54.718;18.426;2024-01-30T01:22:33;26.40;;;11.18;;
77105;SDS011;66057;54.718;18.426;2024-01-30T01:24:59;37.83;;;12.85;;
77105;SDS011;66057;54.718;18.426;2024-01-30T01:27:26;28.48;;;11.40;;
77105;SDS011;66057;54.718;18.426;2024-01-30T01:29:52;29.13;;;11.13;;
77105;SDS011;66057;54.718;18.426;2024-01-30T01:32:19;30.52;;;11.90;;
77105;SDS011;66057;54.718;18.426;2024-01-30T01:34:46;28.95;;;13.02;;
77105;SDS011;66057;54.718;18.426;2024-01-30T01:37:12;23.77;;;10.82;;
77105;SDS011;66057;54.718;18.426;2024-01-30T01:39:38;23.70;;;11.05;;
77105;SDS011;66057;54.718;18.426;2024-01-30T01:42:04;23.52;;;11.25;;
77105;SDS011;66057;54.718;18.426;2024-01-30T01:44:29;31.33;;;14.32;;
77105;SDS011;66057;54.718;18.426;2024-01-30T01:46:55;29.55;;;12.65;;
77105;SDS011;66057;54.718;18.426;2024-01-30T01:49:23;29.10;;;12.38;;
77105;SDS011;66057;54.718;18.426;2024-01-30T01:51:51;33.25;;;12.48;;
77105;SDS011;66057;54.718;18.426;2024-01-30T01:54:20;30.55;;;13.95;;
77105;SDS011;66057;54.718;18.426;2024-01-30T01:56:46;27.63;;;12.88;;
77105;SDS011;66057;54.718;18.426;2024-01-30T01:59:12;20.67;;;9.88;;
77105;SDS011;66057;54.718;18.426;2024-01-30T02:01:38;24.70;;;9.82;;
77105;SDS011;66057;54.718;18.426;2024-01-30T02:04:06;32.67;;;13.27;;
77105;SDS011;66057;54.718;18.426;2024-01-30T02:06:34;21.73;;;10.15;;
77105;SDS011;66057;54.718;18.426;2024-01-30T02:09:00;25.70;;;12.60;;
77105;SDS011;66057;54.718;18.426;2024-01-30T02:11:26;26.35;;;10.88;;
77105;SDS011;66057;54.718;18.426;2024-01-30T02:13:53;28.42;;;11.68;;
77105;SDS011;66057;54.718;18.426;2024-01-30T02:16:19;27.05;;;12.85;;
77105;SDS011;66057;54.718;18.426;2024-01-30T02:18:44;31.52;;;12.73;;
77105;SDS011;66057;54.718;18.426;2024-01-30T02:21:15;26.85;;;11.75;;
77105;SDS011;66057;54.718;18.426;2024-01-30T02:23:41;33.25;;;12.88;;
77105;SDS011;66057;54.718;18.426;2024-01-30T02:26:09;26.13;;;11.07;;
77105;SDS011;66057;54.718;18.426;2024-01-30T02:28:36;25.02;;;12.25;;
77105;SDS011;66057;54.718;18.426;2024-01-30T02:31:02;29.48;;;11.02;;
77105;SDS011;66057;54.718;18.426;2024-01-30T02:33:27;29.45;;;12.20;;
77105;SDS011;66057;54.718;18.426;2024-01-30T02:35:53;33.25;;;12.90;;
77105;SDS011;66057;54.718;18.426;2024-01-30T02:38:20;25.40;;;11.18;;
77105;SDS011;66057;54.718;18.426;2024-01-30T02:40:46;24.38;;;10.40;;
77105;SDS011;66057;54.718;18.426;2024-01-30T02:43:11;28.27;;;11.50;;
77105;SDS011;66057;54.718;18.426;2024-01-30T02:45:40;30.80;;;12.00;;
77105;SDS011;66057;54.718;18.426;2024-01-30T02:48:06;25.55;;;11.35;;
77105;SDS011;66057;54.718;18.426;2024-01-30T02:50:32;26.38;;;10.95;;
77105;SDS011;66057;54.718;18.426;2024-01-30T02:52:58;26.55;;;11.02;;
77105;SDS011;66057;54.718;18.426;2024-01-30T02:55:24;22.00;;;9.85;;
77105;SDS011;66057;54.718;18.426;2024-01-30T02:57:50;24.50;;;10.75;;
77105;SDS011;66057;54.718;18.426;2024-01-30T03:00:19;25.08;;;11.55;;
77105;SDS011;66057;54.718;18.426;2024-01-30T03:02:45;22.52;;;10.30;;
77105;SDS011;66057;54.718;18.426;2024-01-30T03:05:12;29.25;;;11.10;;
77105;SDS011;66057;54.718;18.426;2024-01-30T03:07:38;20.45;;;10.07;;
77105;SDS011;66057;54.718;18.426;2024-01-30T03:10:04;22.42;;;10.15;;
77105;SDS011;66057;54.718;18.426;2024-01-30T03:12:32;24.48;;;10.18;;
77105;SDS011;66057;54.718;18.426;2024-01-30T03:14:58;21.95;;;11.27;;
77105;SDS011;66057;54.718;18.426;2024-01-30T03:17:24;25.95;;;11.07;;
77105;SDS011;66057;54.718;18.426;2024-01-30T03:19:50;22.48;;;10.88;;
77105;SDS011;66057;54.718;18.426;2024-01-30T03:22:17;25.05;;;10.60;;
77105;SDS011;66057;54.718;18.426;2024-01-30T03:24:44;18.05;;;9.75;;
77105;SDS011;66057;54.718;18.426;2024-01-30T03:27:10;23.15;;;10.30;;
77105;SDS011;66057;54.718;18.426;2024-01-30T03:29:37;21.30;;;9.82;;
77105;SDS011;66057;54.718;18.426;2024-01-30T03:32:02;20.70;;;11.02;;
77105;SDS011;66057;54.718;18.426;2024-01-30T03:34:29;15.75;;;7.22;;
77105;SDS011;66057;54.718;18.426;2024-01-30T03:36:55;21.58;;;10.10;;
77105;SDS011;66057;54.718;18.426;2024-01-30T03:39:21;19.38;;;9.02;;
77105;SDS011;66057;54.718;18.426;2024-01-30T03:41:46;9.85;;;5.30;;
77105;SDS011;66057;54.718;18.426;2024-01-30T03:44:12;10.90;;;7.13;;
77105;SDS011;66057;54.718;18.426;2024-01-30T03:46:39;18.33;;;8.98;;
77105;SDS011;66057;54.718;18.426;2024-01-30T03:49:05;13.93;;;6.78;;
77105;SDS011;66057;54.718;18.426;2024-01-30T03:51:30;24.55;;;10.48;;
77105;SDS011;66057;54.718;18.426;2024-01-30T03:53:56;21.40;;;7.40;;
77105;SDS011;66057;54.718;18.426;2024-01-30T03:56:22;12.88;;;9.73;;
77105;SDS011;66057;54.718;18.426;2024-01-30T03:58:48;12.93;;;9.30;;
77105;SDS011;66057;54.718;18.426;2024-01-30T04:01:14;15.77;;;8.05;;
77105;SDS011;66057;54.718;18.426;2024-01-30T04:03:40;21.27;;;10.23;;
77105;SDS011;66057;54.718;18.426;2024-01-30T04:06:09;9.82;;;5.70;;
77105;SDS011;66057;54.718;18.426;2024-01-30T04:08:36;5.95;;;3.95;;
77105;SDS011;66057;54.718;18.426;2024-01-30T04:11:03;21.10;;;6.35;;
77105;SDS011;66057;54.718;18.426;2024-01-30T04:13:31;12.52;;;7.53;;
77105;SDS011;66057;54.718;18.426;2024-01-30T04:15:58;11.85;;;7.65;;
77105;SDS011;66057;54.718;18.426;2024-01-30T04:18:29;8.68;;;4.32;;
77105;SDS011;66057;54.718;18.426;2024-01-30T04:20:55;14.27;;;6.80;;
77105;SDS011;66057;54.718;18.426;2024-01-30T04:23:22;12.88;;;6.55;;
77105;SDS011;66057;54.718;18.426;2024-01-30T04:25:48;12.35;;;6.45;;
77105;SDS011;66057;54.718;18.426;2024-01-30T04:28:14;13.07;;;6.05;;
77105;SDS011;66057;54.718;18.426;2024-01-30T04:30:40;18.98;;;8.38;;
77105;SDS011;66057;54.718;18.426;2024-01-30T04:33:06;6.47;;;4.53;;
77105;SDS011;66057;54.718;18.426;2024-01-30T04:35:32;15.02;;;7.43;;
77105;SDS011;66057;54.718;18.426;2024-01-30T04:37:58;16.85;;;7.78;;
77105;SDS011;66057;54.718;18.426;2024-01-30T04:40:23;24.05;;;10.80;;
77105;SDS011;66057;54.718;18.426;2024-01-30T04:42:49;17.80;;;8.52;;
77105;SDS011;66057;54.718;18.426;2024-01-30T04:45:15;19.25;;;6.20;;
77105;SDS011;66057;54.718;18.426;2024-01-30T04:47:41;16.08;;;5.75;;
77105;SDS011;66057;54.718;18.426;2024-01-30T04:50:07;18.63;;;8.27;;
77105;SDS011;66057;54.718;18.426;2024-01-30T04:52:34;19.25;;;8.18;;
77105;SDS011;66057;54.718;18.426;2024-01-30T04:55:00;22.70;;;9.40;;
77105;SDS011;66057;54.718;18.426;2024-01-30T04:57:26;21.05;;;9.00;;
77105;SDS011;66057;54.718;18.426;2024-01-30T04:59:52;13.55;;;8.80;;
77105;SDS011;66057;54.718;18.426;2024-01-30T05:02:18;12.07;;;7.35;;
77105;SDS011;66057;54.718;18.426;2024-01-30T05:04:44;7.35;;;4.95;;
77105;SDS011;66057;54.718;18.426;2024-01-30T05:07:11;11.20;;;7.10;;
77105;SDS011;66057;54.718;18.426;2024-01-30T05:09:36;13.88;;;7.75;;
77105;SDS011;66057;54.718;18.426;2024-01-30T05:12:03;23.83;;;7.15;;
77105;SDS011;66057;54.718;18.426;2024-01-30T05:14:28;9.18;;;5.93;;
77105;SDS011;66057;54.718;18.426;2024-01-30T05:16:54;10.75;;;7.10;;
77105;SDS011;66057;54.718;18.426;2024-01-30T05:19:20;15.48;;;7.38;;
77105;SDS011;66057;54.718;18.426;2024-01-30T05:21:49;14.38;;;9.25;;
77105;SDS011;66057;54.718;18.426;2024-01-30T05:24:14;21.45;;;8.57;;
77105;SDS011;66057;54.718;18.426;2024-01-30T05:26:40;15.90;;;8.75;;
77105;SDS011;66057;54.718;18.426;2024-01-30T05:29:06;21.63;;;10.25;;
77105;SDS011;66057;54.718;18.426;2024-01-30T05:31:34;13.75;;;6.53;;
77105;SDS011;66057;54.718;18.426;2024-01-30T05:34:01;14.85;;;8.50;;
77105;SDS011;66057;54.718;18.426;2024-01-30T05:36:28;14.38;;;7.78;;
77105;SDS011;66057;54.718;18.426;2024-01-30T05:38:54;12.88;;;6.20;;
77105;SDS011;66057;54.718;18.426;2024-01-30T05:41:20;15.38;;;6.35;;
77105;SDS011;66057;54.718;18.426;2024-01-30T05:43:46;26.02;;;9.38;;
77105;SDS011;66057;54.718;18.426;2024-01-30T05:48:39;20.63;;;7.68;;
77105;SDS011;66057;54.718;18.426;2024-01-30T05:51:06;14.23;;;7.13;;
77105;SDS011;66057;54.718;18.426;2024-01-30T05:53:32;17.65;;;8.45;;
77105;SDS011;66057;54.718;18.426;2024-01-30T05:55:59;14.23;;;7.88;;
77105;SDS011;66057;54.718;18.426;2024-01-30T05:58:26;18.25;;;11.48;;
77105;SDS011;66057;54.718;18.426;2024-01-30T06:00:55;11.55;;;7.13;;
77105;SDS011;66057;54.718;18.426;2024-01-30T06:03:21;11.23;;;5.53;;
77105;SDS011;66057;54.718;18.426;2024-01-30T06:05:47;11.45;;;5.72;;
77105;SDS011;66057;54.718;18.426;2024-01-30T06:08:12;17.42;;;7.10;;
77105;SDS011;66057;54.718;18.426;2024-01-30T06:10:38;6.38;;;4.68;;
77105;SDS011;66057;54.718;18.426;2024-01-30T06:13:04;10.48;;;6.20;;
77105;SDS011;66057;54.718;18.426;2024-01-30T06:15:30;11.15;;;6.88;;
77105;SDS011;66057;54.718;18.426;2024-01-30T06:17:58;8.43;;;5.32;;
77105;SDS011;66057;54.718;18.426;2024-01-30T06:20:24;9.35;;;6.35;;
77105;SDS011;66057;54.718;18.426;2024-01-30T06:22:50;11.88;;;7.47;;
77105;SDS011;66057;54.718;18.426;2024-01-30T06:25:16;8.68;;;5.07;;
77105;SDS011;66057;54.718;18.426;2024-01-30T06:27:42;11.38;;;6.65;;
77105;SDS011;66057;54.718;18.426;2024-01-30T06:30:09;12.82;;;6.72;;
77105;SDS011;66057;54.718;18.426;2024-01-30T06:32:35;13.05;;;8.40;;
77105;SDS011;66057;54.718;18.426;2024-01-30T06:35:01;12.45;;;6.90;;
77105;SDS011;66057;54.718;18.426;2024-01-30T06:37:28;14.52;;;8.45;;
77105;SDS011;66057;54.718;18.426;2024-01-30T06:39:54;10.13;;;5.22;;
77105;SDS011;66057;54.718;18.426;2024-01-30T06:42:20;18.13;;;9.63;;
77105;SDS011;66057;54.718;18.426;2024-01-30T06:44:45;11.63;;;7.20;;
77105;SDS011;66057;54.718;18.426;2024-01-30T06:47:11;13.82;;;7.60;;
77105;SDS011;66057;54.718;18.426;2024-01-30T06:49:38;12.10;;;7.20;;
77105;SDS011;66057;54.718;18.426;2024-01-30T06:52:05;15.00;;;8.77;;
77105;SDS011;66057;54.718;18.426;2024-01-30T06:54:31;18.95;;;10.35;;
77105;SDS011;66057;54.718;18.426;2024-01-30T06:56:58;6.60;;;5.47;;
77105;SDS011;66057;54.718;18.426;2024-01-30T06:59:24;14.60;;;7.53;;
77105;SDS011;66057;54.718;18.426;2024-01-30T07:01:50;23.45;;;10.45;;
77105;SDS011;66057;54.718;18.426;2024-01-30T07:04:15;17.17;;;7.78;;
77105;SDS011;66057;54.718;18.426;2024-01-30T07:06:42;13.30;;;6.82;;
77105;SDS011;66057;54.718;18.426;2024-01-30T07:09:09;10.85;;;5.53;;
77105;SDS011;66057;54.718;18.426;2024-01-30T07:11:35;9.85;;;4.85;;
77105;SDS011;66057;54.718;18.426;2024-01-30T07:14:00;12.52;;;5.72;;
77105;SDS011;66057;54.718;18.426;2024-01-30T07:16:29;28.52;;;9.18;;
77105;SDS011;66057;54.718;18.426;2024-01-30T07:18:54;20.92;;;8.13;;
77105;SDS011;66057;54.718;18.426;2024-01-30T07:21:21;25.42;;;10.07;;
77105;SDS011;66057;54.718;18.426;2024-01-30T07:23:50;18.88;;;8.50;;
77105;SDS011;66057;54.718;18.426;2024-01-30T07:26:16;26.20;;;10.15;;
77105;SDS011;66057;54.718;18.426;2024-01-30T07:28:44;20.15;;;10.85;;
77105;SDS011;66057;54.718;18.426;2024-01-30T07:31:10;16.73;;;7.93;;
77105;SDS011;66057;54.718;18.426;2024-01-30T07:33:37;19.13;;;9.20;;
77105;SDS011;66057;54.718;18.426;2024-01-30T07:36:02;18.65;;;9.93;;
77105;SDS011;66057;54.718;18.426;2024-01-30T07:38:31;20.58;;;9.35;;
77105;SDS011;66057;54.718;18.426;2024-01-30T07:40:57;24.48;;;11.68;;
77105;SDS011;66057;54.718;18.426;2024-01-30T07:43:24;24.25;;;11.90;;
77105;SDS011;66057;54.718;18.426;2024-01-30T07:45:50;24.13;;;11.45;;
77105;SDS011;66057;54.718;18.426;2024-01-30T07:48:18;30.33;;;11.15;;
77105;SDS011;66057;54.718;18.426;2024-01-30T07:50:44;22.00;;;11.68;;
77105;SDS011;66057;54.718;18.426;2024-01-30T07:53:10;27.48;;;11.43;;
77105;SDS011;66057;54.718;18.426;2024-01-30T07:55:35;20.98;;;11.43;;
77105;SDS011;66057;54.718;18.426;2024-01-30T07:58:01;28.63;;;12.57;;
77105;SDS011;66057;54.718;18.426;2024-01-30T08:00:30;26.00;;;13.55;;
77105;SDS011;66057;54.718;18.426;2024-01-30T08:02:56;13.32;;;8.25;;
77105;SDS011;66057;54.718;18.426;2024-01-30T08:07:50;9.25;;;5.35;;
77105;SDS011;66057;54.718;18.426;2024-01-30T08:10:15;6.72;;;4.10;;
77105;SDS011;66057;54.718;18.426;2024-01-30T08:12:44;9.65;;;5.47;;
77105;SDS011;66057;54.718;18.426;2024-01-30T08:17:38;12.45;;;6.28;;
77105;SDS011;66057;54.718;18.426;2024-01-30T08:20:04;17.85;;;7.43;;
77105;SDS011;66057;54.718;18.426;2024-01-30T08:22:30;15.35;;;8.35;;
77105;SDS011;66057;54.718;18.426;2024-01-30T08:24:56;19.50;;;9.43;;
77105;SDS011;66057;54.718;18.426;2024-01-30T08:27:24;27.80;;;10.20;;
77105;SDS011;66057;54.718;18.426;2024-01-30T08:29:49;8.82;;;5.10;;
77105;SDS011;66057;54.718;18.426;2024-01-30T08:34:42;19.33;;;10.35;;
77105;SDS011;66057;54.718;18.426;2024-01-30T08:37:08;7.95;;;6.50;;
77105;SDS011;66057;54.718;18.426;2024-01-30T08:39:34;21.33;;;9.55;;
77105;SDS011;66057;54.718;18.426;2024-01-30T08:42:00;10.23;;;8.18;;
77105;SDS011;66057;54.718;18.426;2024-01-30T08:44:26;16.20;;;9.02;;
77105;SDS011;66057;54.718;18.426;2024-01-30T08:46:53;10.32;;;6.78;;
77105;SDS011;66057;54.718;18.426;2024-01-30T08:49:19;22.73;;;10.90;;
77105;SDS011;66057;54.718;18.426;2024-01-30T08:51:46;11.90;;;7.53;;
77105;SDS011;66057;54.718;18.426;2024-01-30T08:54:12;13.00;;;8.68;;
77105;SDS011;66057;54.718;18.426;2024-01-30T08:56:38;11.45;;;5.57;;
77105;SDS011;66057;54.718;18.426;2024-01-30T08:59:04;14.77;;;7.28;;
77105;SDS011;66057;54.718;18.426;2024-01-30T09:01:30;8.13;;;5.65;;
77105;SDS011;66057;54.718;18.426;2024-01-30T09:03:56;15.95;;;6.45;;
77105;SDS011;66057;54.718;18.426;2024-01-30T09:06:22;16.35;;;6.57;;
77105;SDS011;66057;54.718;18.426;2024-01-30T09:08:49;15.15;;;5.90;;
77105;SDS011;66057;54.718;18.426;2024-01-30T09:11:15;15.52;;;8.13;;
77105;SDS011;66057;54.718;18.426;2024-01-30T09:13:41;7.57;;;4.38;;
77105;SDS011;66057;54.718;18.426;2024-01-30T09:16:16;12.82;;;6.18;;
77105;SDS011;66057;54.718;18.426;2024-01-30T09:18:42;10.50;;;4.72;;
77105;SDS011;66057;54.718;18.426;2024-01-30T09:21:08;11.13;;;3.53;;
77105;SDS011;66057;54.718;18.426;2024-01-30T09:23:33;10.23;;;5.35;;
77105;SDS011;66057;54.718;18.426;2024-01-30T09:25:59;17.80;;;8.05;;
77105;SDS011;66057;54.718;18.426;2024-01-30T09:28:25;10.95;;;4.88;;
77105;SDS011;66057;54.718;18.426;2024-01-30T09:30:52;9.48;;;5.68;;
77105;SDS011;66057;54.718;18.426;2024-01-30T09:33:17;9.07;;;5.32;;
77105;SDS011;66057;54.718;18.426;2024-01-30T09:35:44;9.60;;;5.70;;
77105;SDS011;66057;54.718;18.426;2024-01-30T09:38:10;14.07;;;6.20;;
77105;SDS011;66057;54.718;18.426;2024-01-30T09:40:36;12.50;;;6.35;;
77105;SDS011;66057;54.718;18.426;2024-01-30T09:43:01;11.65;;;4.88;;
77105;SDS011;66057;54.718;18.426;2024-01-30T09:45:28;4.15;;;3.35;;
77105;SDS011;66057;54.718;18.426;2024-01-30T09:47:55;11.10;;;6.45;;
77105;SDS011;66057;54.718;18.426;2024-01-30T09:50:22;8.43;;;6.43;;
77105;SDS011;66057;54.718;18.426;2024-01-30T09:52:48;20.17;;;10.50;;
77105;SDS011;66057;54.718;18.426;2024-01-30T09:55:15;16.73;;;9.02;;
77105;SDS011;66057;54.718;18.426;2024-01-30T09:57:41;15.38;;;8.93;;
77105;SDS011;66057;54.718;18.426;2024-01-30T10:02:35;9.25;;;5.47;;
77105;SDS011;66057;54.718;18.426;2024-01-30T10:05:03;13.82;;;5.00;;
77105;SDS011;66057;54.718;18.426;2024-01-30T10:07:31;18.45;;;7.68;;
77105;SDS011;66057;54.718;18.426;2024-01-30T10:09:56;10.95;;;5.78;;
77105;SDS011;66057;54.718;18.426;2024-01-30T10:12:22;10.10;;;6.05;;
77105;SDS011;66057;54.718;18.426;2024-01-30T10:17:15;14.50;;;6.43;;
77105;SDS011;66057;54.718;18.426;2024-01-30T10:19:41;20.92;;;9.23;;
77105;SDS011;66057;54.718;18.426;2024-01-30T10:22:07;9.63;;;6.22;;
77105;SDS011;66057;54.718;18.426;2024-01-30T10:24:33;14.85;;;7.55;;
77105;SDS011;66057;54.718;18.426;2024-01-30T10:26:59;15.80;;;6.93;;
77105;SDS011;66057;54.718;18.426;2024-01-30T10:29:26;16.10;;;7.68;;
77105;SDS011;66057;54.718;18.426;2024-01-30T10:31:58;15.55;;;5.85;;
77105;SDS011;66057;54.718;18.426;2024-01-30T10:36:51;15.45;;;5.15;;
77105;SDS011;66057;54.718;18.426;2024-01-30T10:39:34;12.10;;;6.93;;
77105;SDS011;66057;54.718;18.426;2024-01-30T10:42:04;18.83;;;8.77;;
77105;SDS011;66057;54.718;18.426;2024-01-30T10:44:36;11.45;;;6.85;;
77105;SDS011;66057;54.718;18.426;2024-01-30T10:47:11;13.40;;;7.35;;
77105;SDS011;66057;54.718;18.426;2024-01-30T10:49:41;10.20;;;5.32;;
77105;SDS011;66057;54.718;18.426;2024-01-30T10:52:08;20.17;;;9.80;;
77105;SDS011;66057;54.718;18.426;2024-01-30T10:54:36;17.90;;;8.70;;
77105;SDS011;66057;54.718;18.426;2024-01-30T10:57:03;20.02;;;9.20;;
77105;SDS011;66057;54.718;18.426;2024-01-30T10:59:30;24.90;;;11.02;;
77105;SDS011;66057;54.718;18.426;2024-01-30T11:04:24;21.70;;;8.98;;
77105;SDS011;66057;54.718;18.426;2024-01-30T11:06:50;20.10;;;10.52;;
77105;SDS011;66057;54.718;18.426;2024-01-30T11:09:17;15.80;;;8.98;;
77105;SDS011;66057;54.718;18.426;2024-01-30T11:11:49;20.48;;;9.52;;
77105;SDS011;66057;54.718;18.426;2024-01-30T11:14:26;14.30;;;8.30;;
77105;SDS011;66057;54.718;18.426;2024-01-30T11:16:52;18.63;;;8.90;;
77105;SDS011;66057;54.718;18.426;2024-01-30T11:19:22;18.83;;;9.77;;
77105;SDS011;66057;54.718;18.426;2024-01-30T11:21:50;18.20;;;10.05;;
77105;SDS011;66057;54.718;18.426;2024-01-30T11:24:22;24.77;;;11.50;;
77105;SDS011;66057;54.718;18.426;2024-01-30T11:26:49;28.45;;;12.80;;
77105;SDS011;66057;54.718;18.426;2024-01-30T11:29:24;26.77;;;12.65;;
77105;SDS011;66057;54.718;18.426;2024-01-30T11:31:54;23.67;;;11.70;;
77105;SDS011;66057;54.718;18.426;2024-01-30T11:34:22;26.73;;;13.60;;
77105;SDS011;66057;54.718;18.426;2024-01-30T11:36:52;30.98;;;14.23;;
77105;SDS011;66057;54.718;18.426;2024-01-30T11:39:24;28.95;;;14.82;;
77105;SDS011;66057;54.718;18.426;2024-01-30T11:41:54;28.08;;;13.77;;
77105;SDS011;66057;54.718;18.426;2024-01-30T11:44:20;31.92;;;13.63;;
77105;SDS011;66057;54.718;18.426;2024-01-30T11:46:47;26.77;;;12.27;;
77105;SDS011;66057;54.718;18.426;2024-01-30T11:49:15;25.38;;;11.75;;
77105;SDS011;66057;54.718;18.426;2024-01-30T11:51:41;24.73;;;11.88;;
77105;SDS011;66057;54.718;18.426;2024-01-30T11:54:07;25.20;;;12.60;;
77105;SDS011;66057;54.718;18.426;2024-01-30T11:56:33;24.90;;;12.98;;
77105;SDS011;66057;54.718;18.426;2024-01-30T11:59:00;22.75;;;11.02;;
77105;SDS011;66057;54.718;18.426;2024-01-30T12:01:26;23.63;;;11.40;;
77105;SDS011;66057;54.718;18.426;2024-01-30T12:03:53;22.60;;;10.88;;
77105;SDS011;66057;54.718;18.426;2024-01-30T12:06:18;26.08;;;10.45;;
77105;SDS011;66057;54.718;18.426;2024-01-30T12:09:05;19.75;;;9.82;;
77105;SDS011;66057;54.718;18.426;2024-01-30T12:11:31;21.55;;;9.13;;
77105;SDS011;66057;54.718;18.426;2024-01-30T12:13:57;26.65;;;12.75;;
77105;SDS011;66057;54.718;18.426;2024-01-30T12:16:23;14.70;;;8.98;;
77105;SDS011;66057;54.718;18.426;2024-01-30T12:18:59;19.15;;;10.40;;
77105;SDS011;66057;54.718;18.426;2024-01-30T12:21:25;14.90;;;8.05;;
77105;SDS011;66057;54.718;18.426;2024-01-30T12:23:51;16.63;;;8.80;;
77105;SDS011;66057;54.718;18.426;2024-01-30T12:26:17;16.10;;;8.48;;
77105;SDS011;66057;54.718;18.426;2024-01-30T12:28:49;18.40;;;9.13;;
77105;SDS011;66057;54.718;18.426;2024-01-30T12:31:15;16.05;;;9.20;;
77105;SDS011;66057;54.718;18.426;2024-01-30T12:33:41;16.60;;;8.55;;
77105;SDS011;66057;54.718;18.426;2024-01-30T12:36:06;15.38;;;9.07;;
77105;SDS011;66057;54.718;18.426;2024-01-30T12:38:33;16.63;;;8.88;;
77105;SDS011;66057;54.718;18.426;2024-01-30T12:40:58;19.25;;;8.50;;
77105;SDS011;66057;54.718;18.426;2024-01-30T12:43:24;13.77;;;8.05;;
77105;SDS011;66057;54.718;18.426;2024-01-30T12:45:52;20.98;;;8.98;;
77105;SDS011;66057;54.718;18.426;2024-01-30T12:48:20;19.80;;;9.30;;
77105;SDS011;66057;54.718;18.426;2024-01-30T12:50:46;18.33;;;9.48;;
77105;SDS011;66057;54.718;18.426;2024-01-30T12:53:13;23.42;;;10.85;;
77105;SDS011;66057;54.718;18.426;2024-01-30T12:55:39;22.23;;;10.77;;
77105;SDS011;66057;54.718;18.426;2024-01-30T12:58:04;23.10;;;12.13;;
77105;SDS011;66057;54.718;18.426;2024-01-30T13:00:31;20.20;;;11.65;;
77105;SDS011;66057;54.718;18.426;2024-01-30T13:02:57;21.73;;;12.40;;
77105;SDS011;66057;54.718;18.426;2024-01-30T13:05:23;24.92;;;12.48;;
77105;SDS011;66057;54.718;18.426;2024-01-30T13:07:50;22.02;;;11.93;;
77105;SDS011;66057;54.718;18.426;2024-01-30T13:10:17;24.20;;;11.93;;
77105;SDS011;66057;54.718;18.426;2024-01-30T13:12:43;23.63;;;11.50;;
77105;SDS011;66057;54.718;18.426;2024-01-30T13:15:08;22.98;;;10.25;;
77105;SDS011;66057;54.718;18.426;2024-01-30T13:20:02;26.85;;;13.02;;
77105;SDS011;66057;54.718;18.426;2024-01-30T13:22:29;25.63;;;12.85;;
77105;SDS011;66057;54.718;18.426;2024-01-30T13:24:55;24.92;;;11.10;;
77105;SDS011;66057;54.718;18.426;2024-01-30T13:27:21;22.70;;;10.88;;
77105;SDS011;66057;54.718;18.426;2024-01-30T13:29:46;15.65;;;9.10;;
77105;SDS011;66057;54.718;18.426;2024-01-30T13:32:13;18.20;;;9.82;;
77105;SDS011;66057;54.718;18.426;2024-01-30T13:34:41;22.02;;;10.38;;
77105;SDS011;66057;54.718;18.426;2024-01-30T13:37:07;19.10;;;9.80;;
77105;SDS011;66057;54.718;18.426;2024-01-30T13:39:33;20.50;;;9.88;;
77105;SDS011;66057;54.718;18.426;2024-01-30T13:41:58;18.73;;;10.85;;
77105;SDS011;66057;54.718;18.426;2024-01-30T13:44:24;21.02;;;10.30;;
77105;SDS011;66057;54.718;18.426;2024-01-30T13:46:50;22.77;;;10.85;;
77105;SDS011;66057;54.718;18.426;2024-01-30T13:49:17;22.05;;;10.77;;
77105;SDS011;66057;54.718;18.426;2024-01-30T13:51:43;21.58;;;11.20;;
77105;SDS011;66057;54.718;18.426;2024-01-30T13:54:08;30.50;;;14.48;;
77105;SDS011;66057;54.718;18.426;2024-01-30T13:56:34;25.92;;;14.63;;
77105;SDS011;66057;54.718;18.426;2024-01-30T13:59:00;26.58;;;13.07;;
77105;SDS011;66057;54.718;18.426;2024-01-30T14:01:30;20.90;;;11.73;;
77105;SDS011;66057;54.718;18.426;2024-01-30T14:03:58;25.25;;;12.50;;
77105;SDS011;66057;54.718;18.426;2024-01-30T14:06:24;28.00;;;13.45;;
77105;SDS011;66057;54.718;18.426;2024-01-30T14:08:50;30.02;;;14.35;;
77105;SDS011;66057;54.718;18.426;2024-01-30T14:11:18;25.52;;;14.02;;
77105;SDS011;66057;54.718;18.426;2024-01-30T14:13:45;39.45;;;16.30;;
77105;SDS011;66057;54.718;18.426;2024-01-30T14:16:11;35.55;;;14.60;;
77105;SDS011;66057;54.718;18.426;2024-01-30T14:18:36;31.98;;;14.88;;
77105;SDS011;66057;54.718;18.426;2024-01-30T14:21:02;36.15;;;14.95;;
77105;SDS011;66057;54.718;18.426;2024-01-30T14:23:28;36.72;;;16.05;;
77105;SDS011;66057;54.718;18.426;2024-01-30T14:25:55;34.40;;;16.85;;
77105;SDS011;66057;54.718;18.426;2024-01-30T14:28:20;33.80;;;16.58;;
77105;SDS011;66057;54.718;18.426;2024-01-30T14:30:46;34.92;;;17.67;;
77105;SDS011;66057;54.718;18.426;2024-01-30T14:33:12;30.10;;;15.52;;
77105;SDS011;66057;54.718;18.426;2024-01-30T14:35:38;36.90;;;17.42;;
77105;SDS011;66057;54.718;18.426;2024-01-30T14:38:04;50.10;;;21.05;;